createdAt,value
2019-04-14T00:01:02.098Z,18.93
2019-04-14T00:04:02.962Z,22.83
2019-04-14T00:06:35.154Z,21.70
2019-04-14T00:09:09.629Z,20.00
2019-04-14T00:11:45.827Z,19.73
2019-04-14T00:14:16.918Z,19.60
2019-04-14T00:16:48.986Z,20.30
2019-04-14T00:19:21.709Z,20.67
2019-04-14T00:21:52.305Z,24.27
2019-04-14T00:24:22.889Z,20.70
2019-04-14T00:26:53.615Z,20.70
2019-04-14T00:29:24.189Z,20.83
2019-04-14T00:31:55.458Z,18.73
2019-04-14T00:34:46.271Z,19.27
2019-04-14T00:37:42.401Z,19.47
2019-04-14T00:40:23.654Z,14.57
2019-04-14T00:43:00.918Z,22.90
2019-04-14T00:45:42.604Z,20.70
2019-04-14T00:48:14.254Z,21.17
2019-04-14T00:50:43.078Z,20.37
2019-04-14T00:53:14.261Z,22.23
2019-04-14T00:55:45.019Z,23.73
2019-04-14T00:58:15.562Z,26.17
2019-04-14T01:00:47.218Z,23.73
2019-04-14T01:03:17.825Z,21.20
2019-04-14T01:05:48.301Z,22.73
2019-04-14T01:08:18.920Z,28.03
2019-04-14T01:10:50.022Z,23.67
2019-04-14T01:13:20.544Z,26.33
2019-04-14T01:15:58.633Z,25.10
2019-04-14T01:18:23.354Z,25.77
2019-04-14T01:20:53.930Z,23.70
2019-04-14T01:23:24.494Z,23.20
2019-04-14T01:25:56.431Z,25.63
2019-04-14T01:28:27.083Z,24.63
2019-04-14T01:30:58.924Z,24.30
2019-04-14T01:33:29.465Z,22.20
2019-04-14T01:36:00.004Z,25.77
2019-04-14T01:38:31.830Z,25.07
2019-04-14T01:41:02.446Z,26.37
2019-04-14T01:43:34.178Z,26.93
2019-04-14T01:46:11.712Z,25.83
2019-04-14T01:48:37.262Z,24.27
2019-04-14T01:51:24.565Z,23.63
2019-04-14T01:54:04.291Z,24.60
2019-04-14T01:56:47.251Z,27.27
2019-04-14T01:59:18.164Z,28.07
2019-04-14T02:01:49.912Z,26.53
2019-04-14T02:04:20.799Z,28.07
2019-04-14T02:06:52.749Z,26.40
2019-04-14T02:09:23.653Z,26.43
2019-04-14T02:11:55.214Z,24.60
2019-04-14T02:14:25.848Z,22.83
2019-04-14T02:16:59.543Z,30.70
2019-04-14T02:19:28.649Z,20.03
2019-04-14T02:22:00.517Z,22.40
2019-04-14T02:24:31.383Z,27.77
2019-04-14T02:27:03.349Z,30.40
2019-04-14T02:29:34.030Z,29.17
2019-04-14T02:32:33.944Z,29.10
2019-04-14T02:35:06.134Z,25.90
2019-04-14T02:40:08.837Z,19.97
2019-04-14T02:42:40.437Z,29.43
2019-04-14T02:45:19.343Z,26.97
2019-04-14T02:50:17.926Z,26.17
2019-04-14T02:52:58.046Z,27.37
2019-04-14T02:55:19.010Z,29.57
2019-04-14T02:57:52.039Z,29.97
2019-04-14T03:00:31.638Z,27.63
2019-04-14T03:03:05.869Z,30.63
2019-04-14T03:05:34.299Z,26.57
2019-04-14T03:08:06.458Z,27.27
2019-04-14T03:13:15.509Z,27.00
2019-04-14T03:18:42.784Z,28.47
2019-04-14T03:21:30.772Z,26.67
2019-04-14T03:24:12.929Z,27.83
2019-04-14T03:26:44.714Z,24.97
2019-04-14T03:29:20.934Z,29.50
2019-04-14T03:39:31.743Z,28.83
2019-04-14T03:42:01.480Z,27.10
2019-04-14T03:44:37.759Z,19.20
2019-04-14T03:47:06.896Z,31.27
2019-04-14T03:49:39.949Z,28.13
2019-04-14T03:52:02.381Z,28.17
2019-04-14T03:54:32.866Z,28.37
2019-04-14T03:56:53.610Z,27.30
2019-04-14T03:59:24.448Z,29.23
2019-04-14T04:01:56.629Z,28.07
2019-04-14T04:04:27.535Z,29.20
2019-04-14T04:06:59.590Z,29.90
2019-04-14T04:09:45.347Z,30.20
2019-04-14T04:12:16.064Z,29.13
2019-04-14T04:14:46.578Z,29.40
2019-04-14T04:17:25.482Z,29.43
2019-04-14T04:20:06.738Z,27.03
2019-04-14T04:23:00.845Z,28.03
2019-04-14T04:25:42.202Z,27.83
2019-04-14T04:28:27.852Z,28.13
2019-04-14T04:31:08.831Z,27.07
2019-04-14T04:33:50.041Z,27.63
2019-04-14T04:36:42.694Z,26.33
2019-04-14T04:39:17.932Z,15.93
2019-04-14T04:41:49.442Z,27.70
2019-04-14T04:44:20.205Z,25.60
2019-04-14T04:46:50.627Z,28.83
2019-04-14T04:49:25.642Z,28.67
2019-04-14T04:51:53.381Z,28.43
2019-04-14T04:54:23.818Z,26.83
2019-04-14T04:56:54.255Z,26.00
2019-04-14T04:59:25.565Z,28.43
2019-04-14T05:01:56.037Z,28.77
2019-04-14T05:04:26.632Z,27.73
2019-04-14T05:06:59.503Z,21.90
2019-04-14T05:09:59.839Z,28.73
2019-04-14T05:12:52.205Z,25.57
2019-04-14T05:15:31.264Z,27.27
2019-04-14T05:18:02.734Z,21.67
2019-04-14T05:20:33.512Z,29.90
2019-04-14T05:23:04.159Z,24.17
2019-04-14T05:25:34.790Z,22.77
2019-04-14T05:28:06.852Z,23.97
2019-04-14T05:30:37.404Z,24.43
2019-04-14T05:33:07.842Z,23.73
2019-04-14T05:35:40.115Z,21.83
2019-04-14T05:38:10.633Z,21.77
2019-04-14T05:40:41.022Z,20.47
2019-04-14T05:43:11.662Z,22.57
2019-04-14T05:45:42.087Z,21.33
2019-04-14T05:48:13.852Z,17.37
2019-04-14T05:50:44.579Z,19.50
2019-04-14T05:53:15.921Z,20.33
2019-04-14T05:55:46.372Z,18.67
2019-04-14T05:58:16.742Z,18.60
2019-04-14T06:00:47.521Z,20.43
2019-04-14T06:03:19.110Z,21.57
2019-04-14T06:05:49.567Z,21.03
2019-04-14T06:08:20.050Z,23.40
2019-04-14T06:10:50.457Z,22.07
2019-04-14T06:13:20.845Z,21.97
2019-04-14T06:15:51.294Z,21.47
2019-04-14T06:18:21.738Z,22.43
2019-04-14T06:20:52.270Z,21.47
2019-04-14T06:23:22.677Z,20.50
2019-04-14T06:25:53.168Z,20.53
2019-04-14T06:28:23.738Z,23.97
2019-04-14T06:31:09.910Z,20.60
2019-04-14T06:33:48.615Z,22.43
2019-04-14T06:36:39.247Z,20.07
2019-04-14T06:39:12.954Z,20.37
2019-04-14T06:41:43.448Z,20.53
2019-04-14T06:44:13.861Z,24.57
2019-04-14T06:46:44.240Z,25.00
2019-04-14T06:49:14.704Z,22.07
2019-04-14T06:51:46.081Z,22.70
2019-04-14T06:54:16.531Z,21.77
2019-04-14T06:56:47.440Z,20.27
2019-04-14T06:59:17.949Z,24.70
2019-04-14T07:01:48.688Z,26.50
2019-04-14T07:04:19.081Z,25.17
2019-04-14T07:06:51.486Z,25.13
2019-04-14T07:09:22.282Z,28.93
2019-04-14T07:11:52.961Z,26.13
2019-04-14T07:14:23.739Z,29.27
2019-04-14T07:16:55.207Z,31.37
2019-04-14T07:19:25.682Z,30.17
2019-04-14T07:21:56.082Z,32.87
2019-04-14T07:24:26.563Z,31.50
2019-04-14T07:26:56.976Z,30.03
2019-04-14T07:29:30.720Z,29.60
2019-04-14T07:32:38.394Z,31.77
2019-04-14T07:35:23.548Z,31.23
2019-04-14T07:38:02.656Z,30.50
2019-04-14T07:40:53.286Z,35.30
2019-04-14T07:43:37.586Z,32.10
2019-04-14T07:46:17.658Z,31.80
2019-04-14T07:49:08.182Z,31.77
2019-04-14T07:51:55.375Z,29.77
2019-04-14T07:54:41.351Z,32.27
2019-04-14T07:57:24.263Z,31.83
2019-04-14T08:00:07.206Z,31.73
2019-04-14T08:02:51.066Z,31.70
2019-04-14T08:05:26.638Z,29.83
2019-04-14T08:07:57.125Z,29.23
2019-04-14T08:10:27.542Z,30.73
2019-04-14T08:12:57.942Z,29.80
2019-04-14T08:15:28.405Z,32.63
2019-04-14T08:17:58.842Z,28.97
2019-04-14T08:20:29.291Z,29.03
2019-04-14T08:23:00.685Z,29.97
2019-04-14T08:25:31.062Z,28.57
2019-04-14T08:28:01.492Z,25.83
2019-04-14T08:30:32.138Z,26.93
2019-04-14T08:33:02.610Z,28.43
2019-04-14T08:35:33.241Z,27.90
2019-04-14T08:38:03.702Z,29.20
2019-04-14T08:40:34.106Z,29.17
2019-04-14T08:43:22.229Z,28.30
2019-04-14T08:46:07.465Z,25.70
2019-04-14T08:48:49.640Z,25.13
2019-04-14T08:51:37.979Z,25.77
2019-04-14T08:54:14.576Z,24.67
2019-04-14T08:56:52.115Z,25.70
2019-04-14T08:59:27.449Z,26.43
2019-04-14T09:02:19.569Z,28.03
2019-04-14T09:05:07.482Z,28.63
2019-04-14T09:08:00.256Z,29.33
2019-04-14T09:10:34.697Z,28.33
2019-04-14T09:13:05.139Z,31.33
2019-04-14T09:15:35.543Z,29.87
2019-04-14T09:18:06.071Z,30.77
2019-04-14T09:20:37.231Z,31.30
2019-04-14T09:23:07.893Z,30.80
2019-04-14T09:25:38.257Z,29.50
2019-04-14T09:28:08.671Z,30.63
2019-04-14T09:30:39.327Z,31.10
2019-04-14T09:33:10.925Z,32.10
2019-04-14T09:35:41.448Z,30.77
2019-04-14T09:38:12.454Z,27.70
2019-04-14T09:40:42.884Z,28.80
2019-04-14T09:43:13.354Z,27.47
2019-04-14T09:45:43.784Z,26.87
2019-04-14T09:48:14.230Z,29.00
2019-04-14T09:50:44.703Z,28.97
2019-04-14T09:53:15.081Z,28.50
2019-04-14T09:55:45.566Z,28.13
2019-04-14T09:58:15.985Z,26.20
2019-04-14T10:00:46.477Z,30.00
2019-04-14T10:03:16.902Z,26.67
2019-04-14T10:05:47.578Z,25.53
2019-04-14T10:08:18.130Z,28.30
2019-04-14T10:10:48.826Z,28.87
2019-04-14T10:13:19.305Z,24.30
2019-04-14T10:15:49.685Z,24.90
2019-04-14T10:18:21.406Z,25.67
2019-04-14T10:20:52.159Z,25.00
2019-04-14T10:23:22.682Z,27.87
2019-04-14T10:25:53.200Z,27.90
2019-04-14T10:28:23.751Z,28.83
2019-04-14T10:30:55.807Z,24.00
2019-04-14T10:33:26.220Z,25.17
2019-04-14T10:35:56.700Z,21.07
2019-04-14T10:38:27.162Z,25.00
2019-04-14T10:40:57.712Z,20.07
2019-04-14T10:43:28.129Z,22.43
2019-04-14T10:45:58.694Z,23.50
2019-04-14T10:48:29.221Z,20.57
2019-04-14T10:51:00.671Z,24.23
2019-04-14T10:53:31.242Z,22.30
2019-04-14T10:56:01.757Z,21.67
2019-04-14T10:58:32.277Z,24.30
2019-04-14T11:01:02.959Z,22.80
2019-04-14T11:03:33.654Z,20.60
2019-04-14T11:06:26.587Z,23.87
2019-04-14T11:08:57.097Z,24.47
2019-04-14T11:11:27.615Z,21.87
2019-04-14T11:13:58.087Z,20.87
2019-04-14T11:16:28.548Z,26.27
2019-04-14T11:18:59.039Z,24.17
2019-04-14T11:21:41.605Z,20.63
2019-04-14T11:24:01.929Z,22.30
2019-04-14T11:26:33.349Z,19.97
2019-04-14T11:29:04.085Z,20.60
2019-04-14T11:31:57.165Z,22.00
2019-04-14T11:34:34.117Z,20.33
2019-04-14T11:37:23.870Z,22.97
2019-04-14T11:39:54.466Z,20.57
2019-04-14T11:42:24.985Z,21.17
2019-04-14T11:44:55.451Z,21.80
2019-04-14T11:47:25.965Z,22.37
2019-04-14T11:49:56.586Z,21.20
2019-04-14T11:52:27.046Z,20.63
2019-04-14T11:54:57.906Z,21.73
2019-04-14T11:57:28.418Z,22.00
2019-04-14T12:00:21.262Z,23.53
2019-04-14T12:03:14.191Z,25.17
2019-04-14T12:06:03.801Z,24.63
2019-04-14T12:08:39.249Z,17.43
2019-04-14T12:11:09.829Z,19.67
2019-04-14T12:13:40.535Z,22.37
2019-04-14T12:16:11.057Z,20.53
2019-04-14T12:18:41.520Z,21.03
2019-04-14T12:21:12.301Z,17.07
2019-04-14T12:23:43.751Z,18.13
2019-04-14T12:26:14.476Z,21.30
2019-04-14T12:28:45.114Z,20.93
2019-04-14T12:31:17.330Z,19.50
2019-04-14T12:33:47.902Z,17.53
2019-04-14T12:36:18.681Z,18.90
2019-04-14T12:38:49.056Z,20.43
2019-04-14T12:41:24.313Z,17.87
2019-04-14T12:44:03.026Z,18.60
2019-04-14T12:46:41.003Z,19.03
2019-04-14T12:49:36.482Z,19.57
2019-04-14T12:52:21.495Z,22.30
2019-04-14T12:54:49.097Z,21.67
2019-04-14T12:57:28.029Z,16.57
2019-04-14T13:00:01.648Z,20.43
2019-04-14T13:02:35.207Z,16.47
2019-04-14T13:05:06.576Z,18.70
2019-04-14T13:07:37.050Z,20.07
2019-04-14T13:10:07.877Z,19.30
2019-04-14T13:12:38.245Z,16.77
2019-04-14T13:15:08.866Z,16.50
2019-04-14T13:17:40.351Z,18.20
2019-04-14T13:20:11.488Z,16.23
2019-04-14T13:22:41.901Z,17.20
2019-04-14T13:25:12.777Z,18.67
2019-04-14T13:27:43.214Z,15.70
2019-04-14T13:30:15.394Z,18.37
2019-04-14T13:32:45.805Z,16.10
2019-04-14T13:35:16.208Z,16.57
2019-04-14T13:37:47.670Z,17.60
2019-04-14T13:40:18.150Z,17.87
2019-04-14T13:42:48.546Z,17.07
2019-04-14T13:45:18.914Z,15.33
2019-04-14T13:47:49.576Z,15.47
2019-04-14T13:50:20.060Z,16.47
2019-04-14T13:52:50.431Z,22.07
2019-04-14T13:55:20.875Z,16.37
2019-04-14T13:57:51.257Z,17.13
2019-04-14T14:00:23.881Z,16.00
2019-04-14T14:02:54.338Z,16.17
2019-04-14T14:05:24.849Z,18.07
2019-04-14T14:07:55.229Z,15.90
2019-04-14T14:10:25.682Z,17.57
2019-04-14T14:13:07.486Z,15.00
2019-04-14T14:15:56.999Z,17.77
2019-04-14T14:18:40.833Z,16.67
2019-04-14T14:21:17.182Z,18.10
2019-04-14T14:24:05.220Z,17.70
2019-04-14T14:26:36.774Z,16.77
2019-04-14T14:29:07.186Z,17.10
2019-04-14T14:31:37.570Z,12.07
2019-04-14T14:34:08.313Z,18.07
2019-04-14T14:36:38.764Z,15.90
2019-04-14T14:39:10.446Z,14.20
2019-04-14T14:41:41.057Z,14.67
2019-04-14T14:44:11.638Z,16.07
2019-04-14T14:47:06.605Z,13.37
2019-04-14T14:50:05.690Z,15.03
2019-04-14T14:52:37.324Z,13.67
2019-04-14T14:55:08.145Z,16.40
2019-04-14T14:57:38.566Z,14.40
2019-04-14T15:00:16.627Z,14.60
2019-04-14T15:02:47.174Z,14.70
2019-04-14T15:05:17.573Z,16.87
2019-04-14T15:07:47.975Z,14.40
2019-04-14T15:10:18.455Z,12.50
2019-04-14T15:12:48.861Z,14.80
2019-04-14T15:15:19.301Z,12.77
2019-04-14T15:17:54.134Z,15.60
2019-04-14T15:20:24.946Z,12.00
2019-04-14T15:22:55.375Z,14.10
2019-04-14T15:25:25.730Z,16.33
2019-04-14T15:27:56.182Z,15.53
2019-04-14T15:30:27.920Z,15.83
2019-04-14T15:32:58.421Z,16.37
2019-04-14T15:35:29.029Z,15.90
2019-04-14T15:37:59.485Z,15.37
2019-04-14T15:40:30.353Z,15.20
2019-04-14T15:43:01.067Z,15.07
2019-04-14T15:45:31.635Z,14.40
2019-04-14T15:48:02.017Z,14.97
2019-04-14T15:50:33.362Z,14.57
2019-04-14T15:53:03.826Z,14.93
2019-04-14T15:55:34.239Z,13.27
2019-04-14T15:58:23.789Z,19.67
2019-04-14T16:01:18.837Z,17.20
2019-04-14T16:04:13.907Z,15.03
2019-04-14T16:06:53.952Z,13.80
2019-04-14T16:09:55.649Z,15.60
2019-04-14T16:12:31.566Z,11.70
2019-04-14T16:15:07.510Z,14.13
2019-04-14T16:17:46.037Z,15.23
2019-04-14T16:20:23.434Z,13.17
2019-04-14T16:22:53.821Z,15.13
2019-04-14T16:25:33.463Z,14.00
2019-04-14T16:28:12.301Z,14.63
2019-04-14T16:31:01.813Z,13.33
2019-04-14T16:33:54.492Z,14.83
2019-04-14T16:36:24.897Z,12.53
2019-04-14T16:38:56.322Z,15.60
2019-04-14T16:41:27.667Z,15.17
2019-04-14T16:43:58.072Z,13.13
2019-04-14T16:46:28.455Z,13.77
2019-04-14T16:48:59.835Z,14.60
2019-04-14T16:51:45.026Z,11.93
2019-04-14T16:54:23.232Z,15.83
2019-04-14T16:57:08.616Z,15.17
2019-04-14T16:59:39.139Z,15.10
2019-04-14T17:02:11.217Z,14.77
2019-04-14T17:04:41.889Z,14.50
2019-04-14T17:07:12.418Z,13.70
2019-04-14T17:09:42.802Z,17.27
2019-04-14T17:12:14.767Z,16.17
2019-04-14T17:14:58.326Z,13.30
2019-04-14T17:17:42.654Z,12.87
2019-04-14T17:20:36.223Z,15.50
2019-04-14T17:23:20.810Z,13.37
2019-04-14T17:26:05.149Z,13.70
2019-04-14T17:28:52.076Z,17.63
2019-04-14T17:31:27.615Z,13.07
2019-04-14T17:34:02.435Z,16.60
2019-04-14T17:36:38.811Z,20.70
2019-04-14T17:39:28.434Z,15.70
2019-04-14T17:42:24.144Z,15.03
2019-04-14T17:45:00.149Z,16.00
2019-04-14T17:47:40.319Z,20.60
2019-04-14T17:50:23.230Z,23.70
2019-04-14T17:53:03.882Z,18.00
2019-04-14T17:55:53.538Z,17.80
2019-04-14T17:58:29.214Z,19.17
2019-04-14T18:01:27.528Z,18.53
2019-04-14T18:04:01.419Z,21.07
2019-04-14T18:06:57.303Z,16.60
2019-04-14T18:09:37.801Z,15.90
2019-04-14T18:12:15.457Z,17.03
2019-04-14T18:15:03.532Z,16.83
2019-04-14T18:17:41.999Z,15.00
2019-04-14T18:20:17.422Z,15.23
2019-04-14T18:22:47.885Z,11.37
2019-04-14T18:25:18.457Z,11.73
2019-04-14T18:27:58.632Z,12.80
2019-04-14T18:30:32.865Z,13.83
2019-04-14T18:33:15.302Z,13.53
2019-04-14T18:36:07.902Z,14.20
2019-04-14T18:39:07.132Z,27.30
2019-04-14T18:41:52.304Z,35.93
2019-04-14T18:44:35.985Z,17.93
2019-04-14T18:47:17.892Z,18.47
2019-04-14T18:50:03.015Z,15.83
2019-04-14T18:52:42.299Z,9.53
2019-04-14T18:55:38.117Z,11.03
2019-04-14T18:58:29.534Z,10.00
2019-04-14T19:01:05.352Z,14.87
2019-04-14T19:03:36.349Z,13.37
2019-04-14T19:06:07.081Z,11.17
2019-04-14T19:08:38.283Z,15.63
2019-04-14T19:11:23.925Z,15.20
2019-04-14T19:13:55.101Z,27.93
2019-04-14T19:16:39.312Z,16.50
2019-04-14T19:19:02.003Z,18.47
2019-04-14T19:21:32.634Z,16.17
2019-04-14T19:24:03.288Z,13.47
2019-04-14T19:26:33.835Z,8.07
2019-04-14T19:29:04.374Z,15.23
2019-04-14T19:31:35.063Z,16.33
2019-04-14T19:34:05.546Z,17.67
2019-04-14T19:36:35.977Z,9.93
2019-04-14T19:39:09.577Z,11.37
2019-04-14T19:41:41.020Z,11.47
2019-04-14T19:44:11.802Z,11.63
2019-04-14T19:46:42.274Z,10.27
2019-04-14T19:49:12.823Z,9.20
2019-04-14T19:51:43.513Z,8.43
2019-04-14T19:54:14.042Z,8.60
2019-04-14T19:56:44.543Z,11.97
2019-04-14T19:59:15.145Z,12.33
2019-04-14T20:01:46.269Z,8.30
2019-04-14T20:04:16.941Z,9.43
2019-04-14T20:06:47.474Z,9.83
2019-04-14T20:09:18.152Z,11.80
2019-04-14T20:11:48.733Z,12.23
2019-04-14T20:14:19.316Z,13.63
2019-04-14T20:16:58.311Z,9.87
2019-04-14T20:19:46.720Z,12.73
2019-04-14T20:22:40.206Z,11.07
2019-04-14T20:25:35.790Z,11.80
2019-04-14T20:28:15.052Z,8.57
2019-04-14T20:30:52.579Z,11.33
2019-04-14T20:33:23.190Z,14.93
2019-04-14T20:35:54.156Z,8.87
2019-04-14T20:38:24.699Z,8.97
2019-04-14T20:40:55.176Z,11.30
2019-04-14T20:43:25.643Z,8.90
2019-04-14T20:45:56.299Z,9.63
2019-04-14T20:48:26.911Z,8.50
2019-04-14T20:50:57.676Z,8.17
2019-04-14T20:53:28.420Z,8.70
2019-04-14T20:55:59.169Z,8.30
2019-04-14T20:58:29.616Z,8.90
2019-04-14T21:01:00.020Z,8.60
2019-04-14T21:03:38.785Z,8.40
2019-04-14T21:06:24.201Z,9.60
2019-04-14T21:09:09.642Z,12.13
2019-04-14T21:11:51.822Z,9.27
2019-04-14T21:14:53.564Z,10.50
2019-04-14T21:17:39.742Z,9.23
2019-04-14T21:20:17.094Z,14.60
2019-04-14T21:22:54.165Z,9.70
2019-04-14T21:25:59.579Z,10.80
2019-04-14T21:28:25.692Z,12.67
2019-04-14T21:31:25.041Z,8.53
2019-04-14T21:34:18.688Z,14.70
2019-04-14T21:37:07.052Z,9.83
2019-04-14T21:39:59.681Z,11.27
2019-04-14T21:42:30.123Z,13.33
2019-04-14T21:45:00.554Z,10.07
2019-04-14T21:47:30.968Z,9.80
2019-04-14T21:50:01.448Z,12.13
2019-04-14T21:52:36.247Z,11.13
2019-04-14T21:55:07.294Z,13.00
2019-04-14T21:58:08.770Z,11.80
2019-04-14T22:01:43.906Z,12.83
2019-04-14T22:04:25.579Z,11.87
2019-04-14T22:06:56.537Z,9.50
2019-04-14T22:09:31.515Z,8.63
2019-04-14T22:12:04.781Z,12.37
2019-04-14T22:14:35.350Z,9.33
2019-04-14T22:17:05.749Z,13.53
2019-04-14T22:19:36.216Z,10.07
2019-04-14T22:22:07.046Z,9.67
2019-04-14T22:24:37.482Z,9.30
2019-04-14T22:27:07.902Z,10.20
2019-04-14T22:29:38.330Z,9.83
2019-04-14T22:32:09.142Z,13.50
2019-04-14T22:34:39.930Z,10.07
2019-04-14T22:37:10.423Z,10.03
2019-04-14T22:39:41.550Z,9.23
2019-04-14T22:42:12.050Z,11.57
2019-04-14T22:44:42.446Z,10.60
2019-04-14T22:47:16.195Z,9.23
2019-04-14T22:49:46.780Z,11.80
2019-04-14T22:52:17.354Z,11.43
2019-04-14T22:54:47.867Z,10.23
2019-04-14T22:57:18.274Z,9.67
2019-04-14T22:59:48.775Z,10.40
2019-04-14T23:02:42.189Z,10.93
2019-04-14T23:05:30.642Z,14.83
2019-04-14T23:08:13.333Z,11.87
2019-04-14T23:10:56.099Z,12.30
2019-04-14T23:13:33.381Z,11.00
2019-04-14T23:16:11.882Z,12.37
2019-04-14T23:19:04.390Z,13.00
2019-04-14T23:21:45.067Z,9.90
2019-04-14T23:24:17.704Z,11.47
2019-04-14T23:26:52.717Z,11.13
2019-04-14T23:29:20.528Z,14.97
2019-04-14T23:31:51.081Z,11.87
2019-04-14T23:34:21.554Z,10.00
2019-04-14T23:36:52.058Z,10.93
2019-04-14T23:39:22.446Z,10.90
2019-04-14T23:41:52.894Z,11.60
2019-04-14T23:44:24.434Z,10.17
2019-04-14T23:46:54.917Z,12.27
2019-04-14T23:49:25.902Z,11.47
2019-04-14T23:51:56.350Z,10.67
2019-04-14T23:54:26.850Z,10.87
2019-04-14T23:57:05.336Z,12.77
2019-04-14T23:59:29.484Z,10.83
